Time;durP1;ratioP1;P1;durP2;ratioP2;P2;SDS_P1;SDS_P2;PMS_P1;PMS_P2;Temp;Humidity;BMP_temperature;BMP_pressure;BME280_temperature;BME280_humidity;BME280_pressure;Samples;Min_cycle;Max_cycle;Signal;HPM_P1;HPM_P2
2023/10/25 00:02:11;;;;;;;;;;;;;;;12.98;78.65;98924.66;5034129;28;19974;-69
2023/10/25 00:04:36;;;;;;;;;;;;;;;13.03;78.76;98915.97;5015018;28;19918;-70
2023/10/25 00:07:01;;;;;;;;;;;;;;;13.24;77.63;98906.38;5014434;28;19936;-70
2023/10/25 00:09:27;;;;;;;;;;;;;;;13.26;77.71;98901.22;5028852;28;19963;-70
2023/10/25 00:11:53;;;;;;;;;;;;;;;13.27;77.98;98911.28;5032928;28;19913;-70
2023/10/25 00:14:19;;;;;;;;;;;;;;;13.39;77.54;98898.28;5031930;28;20430;-70
2023/10/25 00:16:44;;;;;;;;;;;;;;;13.52;77.28;98887.75;5034040;28;19955;-70
2023/10/25 00:19:10;;;;;;;;;;;;;;;13.55;77.10;98885.03;5022484;28;20000;-70
2023/10/25 00:21:35;;;;;;;;;;;;;;;13.62;76.92;98889.97;5014229;28;19925;-70
2023/10/25 00:24:00;;;;;;;;;;;;;;;13.94;76.14;98891.78;5012847;28;20052;-70
2023/10/25 00:26:26;;;;;;;;;;;;;;;14.23;75.43;98889.50;5014159;28;19921;-70
2023/10/25 00:28:51;;;;;;;;;;;;;;;14.27;73.78;98896.03;5022597;28;19921;-70
2023/10/25 00:31:16;;;;;;;;;;;;;;;14.17;74.57;98892.63;5033815;28;20015;-70
2023/10/25 00:33:41;;;;;;;;;;;;;;;14.48;74.18;98895.59;5016094;28;20012;-70
2023/10/25 00:36:07;;;;;;;;;;;;;;;14.57;73.88;98887.72;5020003;28;20031;-70
2023/10/25 00:38:32;;;;;;;;;;;;;;;14.61;73.62;98884.97;5040511;28;20406;-70
2023/10/25 00:40:57;;;;;;;;;;;;;;;14.69;72.44;98885.88;5033563;28;19928;-70
2023/10/25 00:43:24;;;;;;;;;;;;;;;13.72;75.46;98902.59;5032577;28;19914;-70
2023/10/25 00:45:55;;;;;;;;;;;;;;;13.43;76.67;98908.41;5032626;28;19921;-70
2023/10/25 00:48:20;;;;;;;;;;;;;;;13.27;77.76;98897.25;5028495;28;19929;-70
2023/10/25 00:50:46;;;;;;;;;;;;;;;13.49;76.92;98900.53;5013723;28;19913;-70
2023/10/25 00:53:11;;;;;;;;;;;;;;;13.45;77.06;98910.88;5019192;28;20381;-70
2023/10/25 00:55:37;;;;;;;;;;;;;;;13.46;76.58;98904.09;5013668;28;19914;-70
2023/10/25 00:58:02;;;;;;;;;;;;;;;13.44;76.71;98900.84;5017304;28;20404;-70
2023/10/25 01:00:28;;;;;;;;;;;;;;;13.27;77.86;98893.63;5028580;28;19921;-70
2023/10/25 01:02:53;;;;;;;;;;;;;;;13.40;77.24;98889.47;5018550;28;19932;-70
2023/10/25 01:05:19;;;;;;;;;;;;;;;13.55;76.47;98893.44;5033283;28;20388;-70
2023/10/25 01:07:44;;;;;;;;;;;;;;;13.76;75.31;98881.03;5025382;28;20407;-70
2023/10/25 01:10:09;;;;;;;;;;;;;;;13.89;74.92;98888.13;5031436;28;19917;-70
2023/10/25 01:12:35;;;;;;;;;;;;;;;14.10;74.28;98883.25;5030855;28;20435;-70
2023/10/25 01:15:00;;;;;;;;;;;;;;;14.34;73.38;98882.06;5031654;28;19921;-70
2023/10/25 01:17:25;;;;;;;;;;;;;;;14.46;72.65;98887.50;5032786;28;19913;-70
2023/10/25 01:19:51;;;;;;;;;;;;;;;14.41;72.38;98882.22;5031891;28;19921;-70
2023/10/25 01:22:16;;;;;;;;;;;;;;;14.38;73.20;98882.97;5032884;28;19917;-70
2023/10/25 01:24:42;;;;;;;;;;;;;;;14.38;74.00;98876.50;5030852;28;19979;-70
2023/10/25 01:27:08;;;;;;;;;;;;;;;14.39;73.74;98881.78;5032781;28;19917;-70
2023/10/25 01:29:33;;;;;;;;;;;;;;;14.54;73.08;98882.00;5045370;28;19913;-70
2023/10/25 01:31:58;;;;;;;;;;;;;;;14.60;72.14;98884.13;5032745;28;19917;-70
2023/10/25 01:34:24;;;;;;;;;;;;;;;14.58;72.01;98877.25;5031278;28;20285;-70
2023/10/25 01:36:49;;;;;;;;;;;;;;;14.76;71.18;98873.97;5031285;28;20004;-70
2023/10/25 01:39:14;;;;;;;;;;;;;;;14.85;70.77;98863.25;5027725;28;19957;-70
2023/10/25 01:41:40;;;;;;;;;;;;;;;14.58;72.25;98849.09;5012803;28;20357;-70
2023/10/25 01:44:05;;;;;;;;;;;;;;;14.55;72.42;98833.00;5028276;28;19913;-70
2023/10/25 01:46:30;;;;;;;;;;;;;;;14.00;75.13;98818.00;5030908;28;19921;-70
2023/10/25 01:48:56;;;;;;;;;;;;;;;14.42;73.78;98812.66;5031824;28;19948;-70
2023/10/25 01:51:21;;;;;;;;;;;;;;;14.66;73.12;98808.63;5032274;28;20403;-70
2023/10/25 01:53:46;;;;;;;;;;;;;;;14.70;73.40;98819.97;5030921;28;19948;-70
2023/10/25 01:56:11;;;;;;;;;;;;;;;14.84;72.50;98822.19;5030905;28;19920;-70
2023/10/25 01:58:37;;;;;;;;;;;;;;;14.88;72.01;98814.63;5021273;28;19924;-70
2023/10/25 02:01:06;;;;;;;;;;;;;;;14.80;72.04;98801.63;5032092;28;19962;-70
2023/10/25 02:03:31;;;;;;;;;;;;;;;14.17;75.01;98788.59;5032071;28;19917;-70
2023/10/25 02:05:57;;;;;;;;;;;;;;;14.49;73.88;98790.28;5047370;28;20029;-70
2023/10/25 02:08:22;;;;;;;;;;;;;;;14.69;73.58;98779.72;5031861;28;19917;-70
2023/10/25 02:10:47;;;;;;;;;;;;;;;14.54;74.12;98783.53;5031954;28;19913;-70
2023/10/25 02:13:12;;;;;;;;;;;;;;;14.35;75.05;98785.25;5029557;28;19960;-70
2023/10/25 02:15:38;;;;;;;;;;;;;;;13.46;77.25;98786.09;5027742;28;19917;-70
2023/10/25 02:18:03;;;;;;;;;;;;;;;13.58;77.38;98794.38;5013128;28;20399;-70
2023/10/25 02:20:29;;;;;;;;;;;;;;;13.96;75.59;98793.84;5030501;28;19917;-70
2023/10/25 02:22:54;;;;;;;;;;;;;;;14.15;75.75;98795.75;5031872;28;20388;-70
2023/10/25 02:25:19;;;;;;;;;;;;;;;14.18;75.69;98793.03;5031789;28;19913;-70
2023/10/25 02:27:45;;;;;;;;;;;;;;;14.24;75.40;98803.94;5019174;28;20376;-70
2023/10/25 02:30:10;;;;;;;;;;;;;;;14.30;74.74;98819.31;5031148;28;20383;-70
2023/10/25 02:32:36;;;;;;;;;;;;;;;14.29;74.67;98823.31;5019711;28;19964;-70
2023/10/25 02:35:01;;;;;;;;;;;;;;;14.39;74.16;98827.50;5010609;28;19940;-70
2023/10/25 02:37:26;;;;;;;;;;;;;;;14.11;75.04;98832.25;5010735;28;20000;-70
2023/10/25 02:39:51;;;;;;;;;;;;;;;14.25;74.65;98833.72;5043324;28;19928;-70
2023/10/25 02:42:17;;;;;;;;;;;;;;;14.02;75.52;98826.88;5030637;28;19924;-70
2023/10/25 02:44:42;;;;;;;;;;;;;;;14.07;75.29;98833.41;5031602;28;19967;-70
2023/10/25 02:47:07;;;;;;;;;;;;;;;14.15;74.20;98843.56;5031551;28;19919;-70
2023/10/25 02:49:35;;;;;;;;;;;;;;;13.93;74.63;98840.38;5021346;28;19975;-70
2023/10/25 02:52:01;;;;;;;;;;;;;;;13.94;75.48;98836.41;5011889;28;20407;-70
2023/10/25 02:54:26;;;;;;;;;;;;;;;14.12;74.80;98842.34;5011739;28;19914;-70
2023/10/25 02:56:51;;;;;;;;;;;;;;;14.11;75.22;98846.31;5020106;28;19960;-70
2023/10/25 02:59:16;;;;;;;;;;;;;;;14.17;74.99;98850.47;5033212;28;19921;-70
2023/10/25 03:01:42;;;;;;;;;;;;;;;13.71;76.53;98844.78;5030781;28;19930;-70
2023/10/25 03:04:07;;;;;;;;;;;;;;;13.52;77.55;98848.41;5030846;28;20068;-70
2023/10/25 03:06:33;;;;;;;;;;;;;;;13.46;77.99;98845.09;5013806;28;19924;-70
2023/10/25 03:08:58;;;;;;;;;;;;;;;13.47;78.32;98850.34;5033900;28;19924;-70
2023/10/25 03:11:24;;;;;;;;;;;;;;;13.31;78.58;98841.13;5028563;28;19964;-70
2023/10/25 03:13:49;;;;;;;;;;;;;;;13.51;78.08;98839.16;5024076;28;19920;-70
2023/10/25 03:16:14;;;;;;;;;;;;;;;13.46;77.61;98845.09;5015388;28;19914;-70
2023/10/25 03:18:39;;;;;;;;;;;;;;;13.37;77.62;98856.53;5022788;28;19923;-70
2023/10/25 03:21:05;;;;;;;;;;;;;;;13.06;78.35;98867.50;5030286;28;19921;-70
2023/10/25 03:23:30;;;;;;;;;;;;;;;12.76;80.35;98864.41;5015514;28;19917;-70
2023/10/25 03:25:57;;;;;;;;;;;;;;;12.63;81.04;98874.91;5021472;28;19957;-70
2023/10/25 03:28:22;;;;;;;;;;;;;;;12.59;81.36;98888.84;5020050;28;19918;-70
2023/10/25 03:30:48;;;;;;;;;;;;;;;12.68;81.09;98887.84;5033524;28;20358;-70
2023/10/25 03:33:13;;;;;;;;;;;;;;;12.59;81.49;98885.25;5033590;28;19920;-70
2023/10/25 03:35:38;;;;;;;;;;;;;;;12.62;81.43;98871.31;5034250;28;19913;-70
2023/10/25 03:38:03;;;;;;;;;;;;;;;12.64;81.30;98877.34;5030568;28;20388;-70
2023/10/25 03:40:29;;;;;;;;;;;;;;;12.80;80.91;98881.34;5030374;28;19921;-70
2023/10/25 03:42:54;;;;;;;;;;;;;;;12.92;80.31;98895.25;5034847;28;19913;-70
2023/10/25 03:45:19;;;;;;;;;;;;;;;12.88;80.27;98897.97;5034630;28;19913;-71
2023/10/25 03:47:45;;;;;;;;;;;;;;;12.99;80.40;98880.56;5034636;28;19917;-72
2023/10/25 03:50:10;;;;;;;;;;;;;;;13.25;79.64;98873.50;5034456;28;19929;-71
2023/10/25 03:52:35;;;;;;;;;;;;;;;13.40;79.03;98881.06;5031700;28;20299;-72
2023/10/25 03:55:01;;;;;;;;;;;;;;;13.46;79.35;98878.81;5020660;28;20315;-72
2023/10/25 03:57:26;;;;;;;;;;;;;;;13.62;79.04;98862.66;5026300;28;19917;-71
2023/10/25 03:59:52;;;;;;;;;;;;;;;13.55;80.20;98850.47;5033997;28;19929;-71
2023/10/25 04:02:17;;;;;;;;;;;;;;;13.72;79.60;98846.41;5028018;28;19975;-72
2023/10/25 04:04:42;;;;;;;;;;;;;;;13.64;80.16;98834.22;5028794;28;19971;-71
2023/10/25 04:07:11;;;;;;;;;;;;;;;13.59;80.32;98826.91;5026768;28;20012;-72
2023/10/25 04:09:36;;;;;;;;;;;;;;;13.84;79.33;98828.56;5011703;28;19919;-72
2023/10/25 04:12:02;;;;;;;;;;;;;;;13.78;79.33;98819.63;5012048;28;20000;-72
2023/10/25 04:14:27;;;;;;;;;;;;;;;13.77;79.26;98823.63;5012003;28;19917;-71
2023/10/25 04:16:52;;;;;;;;;;;;;;;13.90;78.54;98810.19;5018038;28;20020;-71
2023/10/25 04:19:18;;;;;;;;;;;;;;;14.04;77.73;98802.00;5031447;28;19917;-71
2023/10/25 04:21:43;;;;;;;;;;;;;;;14.01;77.53;98802.78;5030258;28;19990;-71
2023/10/25 04:24:08;;;;;;;;;;;;;;;14.11;76.85;98795.69;5030012;28;19924;-71
2023/10/25 04:26:34;;;;;;;;;;;;;;;14.08;77.17;98795.66;5028597;28;19928;-71
2023/10/25 04:28:59;;;;;;;;;;;;;;;13.83;77.35;98794.00;5022363;28;19921;-72
2023/10/25 04:31:25;;;;;;;;;;;;;;;13.83;78.23;98788.41;5030415;28;19931;-73
2023/10/25 04:33:51;;;;;;;;;;;;;;;13.73;79.21;98764.53;5029974;28;19925;-73
2023/10/25 04:36:16;;;;;;;;;;;;;;;13.57;80.00;98755.38;5027313;28;20315;-72
2023/10/25 04:38:42;;;;;;;;;;;;;;;13.70;79.34;98754.06;5028211;28;19944;-72
2023/10/25 04:41:07;;;;;;;;;;;;;;;13.88;78.47;98748.75;5020248;28;19967;-71
2023/10/25 04:43:32;;;;;;;;;;;;;;;13.87;78.47;98752.72;5026033;28;20427;-72
2023/10/25 04:45:58;;;;;;;;;;;;;;;13.48;80.13;98747.22;5029209;28;19917;-72
2023/10/25 04:48:23;;;;;;;;;;;;;;;13.81;78.61;98739.34;5030961;28;19925;-72
2023/10/25 04:50:48;;;;;;;;;;;;;;;13.84;78.82;98741.44;5016743;28;19924;-71
2023/10/25 04:53:14;;;;;;;;;;;;;;;14.01;77.92;98740.91;5020509;28;20004;-71
2023/10/25 04:55:44;;;;;;;;;;;;;;;13.78;78.67;98743.75;5031777;28;19917;-70
2023/10/25 04:58:09;;;;;;;;;;;;;;;13.56;79.21;98731.28;5028469;28;19967;-68
2023/10/25 05:00:34;;;;;;;;;;;;;;;13.35;80.49;98721.28;5022288;28;19956;-69
2023/10/25 05:02:59;;;;;;;;;;;;;;;13.57;80.52;98727.28;5044980;28;19959;-69
2023/10/25 05:05:25;;;;;;;;;;;;;;;13.74;79.53;98715.56;5024520;28;19930;-72
2023/10/25 05:07:51;;;;;;;;;;;;;;;13.90;79.29;98709.81;5026592;28;20069;-73
2023/10/25 05:10:16;;;;;;;;;;;;;;;13.95;78.39;98719.13;5031629;28;19920;-71
2023/10/25 05:12:43;;;;;;;;;;;;;;;13.64;79.15;98721.81;5032022;28;20305;-71
2023/10/25 05:15:09;;;;;;;;;;;;;;;13.76;78.75;98727.25;5022867;28;19924;-72
2023/10/25 05:17:34;;;;;;;;;;;;;;;13.59;79.16;98734.16;5029090;28;19917;-72
2023/10/25 05:20:00;;;;;;;;;;;;;;;13.17;80.87;98738.56;5021840;28;20020;-71
2023/10/25 05:22:27;;;;;;;;;;;;;;;12.81;83.03;98734.22;5024900;28;20380;-71
2023/10/25 05:24:53;;;;;;;;;;;;;;;12.98;83.05;98741.41;5030400;28;19940;-71
2023/10/25 05:27:18;;;;;;;;;;;;;;;13.42;81.52;98738.25;5027919;28;20380;-70
2023/10/25 05:29:44;;;;;;;;;;;;;;;13.60;80.81;98724.56;5011619;28;19921;-71
2023/10/25 05:32:12;;;;;;;;;;;;;;;13.49;80.93;98717.94;5027903;28;19913;-71
2023/10/25 05:34:38;;;;;;;;;;;;;;;13.42;81.72;98729.81;5027894;28;19983;-71
2023/10/25 05:37:03;;;;;;;;;;;;;;;13.36;81.98;98756.59;5027387;28;19917;-71
2023/10/25 05:39:29;;;;;;;;;;;;;;;13.28;82.69;98761.25;5031298;28;20008;-71
2023/10/25 05:41:55;;;;;;;;;;;;;;;13.42;82.16;98751.50;5030781;28;19928;-71
2023/10/25 05:44:20;;;;;;;;;;;;;;;13.31;82.61;98768.94;5018218;28;19967;-71
2023/10/25 05:46:46;;;;;;;;;;;;;;;13.48;81.47;98778.09;5016760;28;20380;-71
2023/10/25 05:49:11;;;;;;;;;;;;;;;13.69;80.07;98771.28;5028219;28;19992;-70
2023/10/25 05:51:36;;;;;;;;;;;;;;;13.79;79.50;98781.91;5024181;28;20404;-69
2023/10/25 05:54:02;;;;;;;;;;;;;;;13.86;79.66;98789.66;5027243;28;19923;-70
2023/10/25 05:56:28;;;;;;;;;;;;;;;13.88;79.09;98787.28;5025969;28;19917;-70
2023/10/25 05:58:54;;;;;;;;;;;;;;;13.96;78.54;98789.03;5032051;28;20007;-69
2023/10/25 06:01:22;;;;;;;;;;;;;;;14.06;78.43;98796.03;5031867;28;19917;-69
2023/10/25 06:03:48;;;;;;;;;;;;;;;14.04;78.29;98789.97;5026956;28;20392;-69
2023/10/25 06:06:16;;;;;;;;;;;;;;;14.11;77.91;98784.44;5014078;28;20248;-69
2023/10/25 06:08:42;;;;;;;;;;;;;;;14.20;77.96;98801.09;5013163;28;19925;-69
2023/10/25 06:11:07;;;;;;;;;;;;;;;14.33;77.12;98807.31;5025412;28;19924;-69
2023/10/25 06:13:32;;;;;;;;;;;;;;;14.38;76.80;98815.44;5028878;28;19917;-71
2023/10/25 06:15:58;;;;;;;;;;;;;;;14.18;77.52;98834.41;5031316;28;19917;-70
2023/10/25 06:18:23;;;;;;;;;;;;;;;13.99;78.51;98840.88;5030184;28;19920;-69
2023/10/25 06:20:48;;;;;;;;;;;;;;;13.57;80.82;98837.69;5016268;28;19929;-69
2023/10/25 06:23:14;;;;;;;;;;;;;;;13.22;82.54;98849.78;5026776;28;19940;-69
2023/10/25 06:25:39;;;;;;;;;;;;;;;13.15;83.08;98852.41;5021728;28;20305;-69
2023/10/25 06:28:04;;;;;;;;;;;;;;;13.22;82.73;98830.13;5014807;28;19918;-69
2023/10/25 06:30:30;;;;;;;;;;;;;;;13.50;81.95;98826.31;5027019;28;19935;-69
2023/10/25 06:32:58;;;;;;;;;;;;;;;13.71;80.66;98827.91;5024474;28;19913;-68
2023/10/25 06:35:24;;;;;;;;;;;;;;;13.83;80.12;98810.88;5027854;28;20007;-72
2023/10/25 06:37:49;;;;;;;;;;;;;;;13.99;79.47;98812.75;5027484;28;20377;-72
2023/10/25 06:40:15;;;;;;;;;;;;;;;13.88;80.33;98827.47;5028159;28;19926;-72
2023/10/25 06:42:40;;;;;;;;;;;;;;;14.03;80.17;98827.72;5020575;28;19920;-72
2023/10/25 06:45:06;;;;;;;;;;;;;;;14.12;79.36;98828.28;5011740;28;19914;-72
2023/10/25 06:47:31;;;;;;;;;;;;;;;14.13;79.89;98840.31;5025685;28;19967;-72
2023/10/25 06:49:57;;;;;;;;;;;;;;;14.01;80.62;98832.91;5028194;28;19928;-71
2023/10/25 06:52:22;;;;;;;;;;;;;;;14.04;80.53;98832.94;5030903;28;19917;-72
2023/10/25 06:54:49;;;;;;;;;;;;;;;13.95;80.77;98842.81;5015698;28;19959;-72
2023/10/25 06:57:15;;;;;;;;;;;;;;;14.05;81.13;98847.81;5015932;28;19952;-71
2023/10/25 06:59:40;;;;;;;;;;;;;;;14.24;80.62;98830.06;5011068;28;19979;-71
2023/10/25 07:02:21;;;;;;;;;;;;;;;14.31;80.58;98823.75;5011357;28;19929;-71
2023/10/25 07:04:52;;;;;;;;;;;;;;;14.54;79.40;98817.28;5016540;28;20380;-71
2023/10/25 07:07:22;;;;;;;;;;;;;;;14.59;79.64;98816.97;5031231;28;20392;-72
2023/10/25 07:09:47;;;;;;;;;;;;;;;14.70;79.08;98814.31;5026768;28;19917;-72
2023/10/25 07:12:12;;;;;;;;;;;;;;;14.80;78.43;98815.69;5018381;28;20438;-71
2023/10/25 07:14:38;;;;;;;;;;;;;;;14.78;78.81;98827.34;5026845;28;19917;-72
2023/10/25 07:17:03;;;;;;;;;;;;;;;14.65;80.13;98825.91;5029963;28;20468;-71
2023/10/25 07:19:28;;;;;;;;;;;;;;;14.91;79.06;98818.69;5030045;28;19917;-71
2023/10/25 07:21:53;;;;;;;;;;;;;;;15.06;78.43;98819.69;5030692;28;20319;-71
2023/10/25 07:24:19;;;;;;;;;;;;;;;15.17;78.00;98809.38;5027678;28;20004;-71
2023/10/25 07:26:44;;;;;;;;;;;;;;;15.23;77.72;98802.22;5017340;28;20403;-70
2023/10/25 07:29:09;;;;;;;;;;;;;;;15.33;77.42;98803.53;5029873;28;19917;-71
2023/10/25 07:31:35;;;;;;;;;;;;;;;15.21;77.70;98806.59;5022172;28;19928;-71
2023/10/25 07:34:00;;;;;;;;;;;;;;;15.38;76.60;98811.63;5025704;28;20363;-70
2023/10/25 07:36:26;;;;;;;;;;;;;;;14.98;77.60;98824.41;5011913;28;19924;-70
2023/10/25 07:38:53;;;;;;;;;;;;;;;15.12;78.16;98840.69;5014072;28;19921;-70
2023/10/25 07:41:18;;;;;;;;;;;;;;;15.32;77.67;98848.97;5021755;28;19922;-73
2023/10/25 07:43:43;;;;;;;;;;;;;;;15.05;78.52;98840.59;5024213;28;19924;-72
2023/10/25 07:46:09;;;;;;;;;;;;;;;14.96;78.36;98835.25;5027965;28;20377;-72
2023/10/25 07:48:34;;;;;;;;;;;;;;;15.26;77.91;98821.16;5014486;28;19952;-72
2023/10/25 07:51:04;;;;;;;;;;;;;;;15.31;78.38;98817.19;5027236;28;20390;-72
2023/10/25 07:53:29;;;;;;;;;;;;;;;15.20;78.42;98828.31;5021759;28;20295;-73
2023/10/25 07:55:54;;;;;;;;;;;;;;;15.20;78.21;98847.22;5017614;28;20028;-71
2023/10/25 07:58:22;;;;;;;;;;;;;;;15.44;77.49;98840.28;5029658;28;19970;-70
2023/10/25 08:00:47;;;;;;;;;;;;;;;15.63;76.76;98846.97;5032600;28;19927;-71
2023/10/25 08:03:15;;;;;;;;;;;;;;;15.76;76.00;98839.88;5032762;28;19913;-71
2023/10/25 08:05:40;;;;;;;;;;;;;;;15.65;75.64;98838.94;5019073;28;19921;-73
2023/10/25 08:08:05;;;;;;;;;;;;;;;15.83;75.35;98839.97;5027412;28;19928;-72
2023/10/25 08:10:31;;;;;;;;;;;;;;;15.95;74.81;98843.72;5028068;28;20011;-71
2023/10/25 08:12:56;;;;;;;;;;;;;;;15.88;75.11;98840.78;5032193;28;19917;-73
2023/10/25 08:15:21;;;;;;;;;;;;;;;15.96;74.42;98836.88;5023291;28;19940;-73
2023/10/25 08:17:46;;;;;;;;;;;;;;;16.07;73.47;98837.00;5014323;28;19913;-73
2023/10/25 08:20:12;;;;;;;;;;;;;;;16.17;73.41;98822.19;5029405;28;19921;-73
2023/10/25 08:22:37;;;;;;;;;;;;;;;16.25;73.12;98825.88;5019659;28;19921;-73
2023/10/25 08:25:08;;;;;;;;;;;;;;;16.27;73.02;98823.47;5014833;28;19917;-73
2023/10/25 08:27:34;;;;;;;;;;;;;;;16.23;73.57;98831.91;5013949;28;19924;-74
2023/10/25 08:29:59;;;;;;;;;;;;;;;16.28;73.63;98831.56;5013263;28;20395;-74
2023/10/25 08:32:26;;;;;;;;;;;;;;;16.38;74.80;98823.56;5022332;28;19925;-73
2023/10/25 08:34:51;;;;;;;;;;;;;;;16.39;75.12;98822.38;5017068;28;20210;-73
2023/10/25 08:37:16;;;;;;;;;;;;;;;16.40;75.26;98824.78;5021841;28;19971;-73
2023/10/25 08:39:42;;;;;;;;;;;;;;;16.34;74.38;98822.72;5029044;28;19928;-71
2023/10/25 08:42:10;;;;;;;;;;;;;;;15.89;74.60;98831.13;5025624;28;19972;-73
2023/10/25 08:44:39;;;;;;;;;;;;;;;15.53;75.46;98848.47;5023879;28;19918;-74
2023/10/25 08:47:05;;;;;;;;;;;;;;;15.55;76.48;98841.22;5019184;28;19918;-75
2023/10/25 08:49:30;;;;;;;;;;;;;;;15.77;75.07;98841.47;5032518;28;20289;-74
2023/10/25 08:51:55;;;;;;;;;;;;;;;15.76;75.55;98830.63;5033409;28;19913;-74
2023/10/25 08:54:24;;;;;;;;;;;;;;;15.46;76.62;98846.38;5032070;28;19921;-74
2023/10/25 08:56:49;;;;;;;;;;;;;;;15.71;75.37;98837.41;5028056;28;20402;-74
2023/10/25 08:59:15;;;;;;;;;;;;;;;15.55;76.28;98834.78;5023946;28;20020;-74
2023/10/25 09:01:41;;;;;;;;;;;;;;;15.71;76.13;98826.13;5026751;28;19960;-75
2023/10/25 09:04:08;;;;;;;;;;;;;;;15.89;74.56;98836.78;5024894;28;19964;-74
2023/10/25 09:06:33;;;;;;;;;;;;;;;15.79;75.49;98838.28;5017835;28;20403;-75
2023/10/25 09:08:59;;;;;;;;;;;;;;;15.61;75.61;98832.44;5031559;28;19959;-74
2023/10/25 09:11:25;;;;;;;;;;;;;;;15.73;75.80;98829.38;5024373;28;19917;-75
2023/10/25 09:13:57;;;;;;;;;;;;;;;15.91;75.17;98829.59;5026436;28;20804;-74
2023/10/25 09:16:24;;;;;;;;;;;;;;;15.71;75.78;98809.22;5030128;28;19921;-76
2023/10/25 09:18:50;;;;;;;;;;;;;;;16.02;75.58;98818.41;5018151;28;20293;-77
2023/10/25 09:21:15;;;;;;;;;;;;;;;16.31;74.41;98813.03;5020367;28;19928;-75
2023/10/25 09:23:40;;;;;;;;;;;;;;;16.24;73.84;98808.16;5020176;28;19921;-73
2023/10/25 09:26:16;;;;;;;;;;;;;;;16.11;74.82;98813.25;5022629;28;19932;-73
2023/10/25 09:28:42;;;;;;;;;;;;;;;16.25;74.46;98818.22;5025538;28;19928;-73
2023/10/25 09:31:19;;;;;;;;;;;;;;;16.45;74.03;98812.31;5019798;28;19921;-73
2023/10/25 09:33:46;;;;;;;;;;;;;;;16.54;73.27;98815.63;5020415;28;19972;-73
2023/10/25 09:36:12;;;;;;;;;;;;;;;16.83;72.61;98812.19;5022086;28;19928;-73
2023/10/25 09:38:37;;;;;;;;;;;;;;;17.04;71.50;98807.91;5024470;28;19921;-73
2023/10/25 09:41:03;;;;;;;;;;;;;;;17.24;70.96;98806.38;5015521;28;19972;-74
2023/10/25 09:43:29;;;;;;;;;;;;;;;17.31;71.06;98804.81;5023077;28;19983;-73
2023/10/25 09:45:57;;;;;;;;;;;;;;;17.45;70.09;98815.38;5017595;28;19924;-71
2023/10/25 09:48:22;;;;;;;;;;;;;;;17.13;70.66;98808.34;5024275;28;19921;-70
2023/10/25 09:51:03;;;;;;;;;;;;;;;17.07;70.96;98809.94;5029391;28;20418;-70
2023/10/25 09:53:36;;;;;;;;;;;;;;;17.27;71.04;98799.13;5024596;28;19936;-71
2023/10/25 09:56:03;;;;;;;;;;;;;;;17.51;70.65;98793.97;5028520;28;19920;-71
2023/10/25 09:58:31;;;;;;;;;;;;;;;17.74;69.75;98790.84;5030126;28;20274;-71
2023/10/25 10:00:59;;;;;;;;;;;;;;;17.64;69.47;98794.44;5026440;28;20490;-71
2023/10/25 10:03:32;;;;;;;;;;;;;;;17.61;69.88;98804.53;5030369;28;20316;-77
2023/10/25 10:06:07;;;;;;;;;;;;;;;17.88;69.23;98792.06;5030512;28;19913;-75
2023/10/25 10:08:39;;;;;;;;;;;;;;;18.20;69.35;98777.97;5020913;28;19921;-77
2023/10/25 10:11:09;;;;;;;;;;;;;;;18.03;67.94;98773.09;5027282;28;19924;-80
2023/10/25 10:13:34;;;;;;;;;;;;;;;18.24;67.58;98775.16;5029723;28;20004;-80
2023/10/25 10:16:01;;;;;;;;;;;;;;;18.49;66.64;98763.00;5025469;28;20008;-80
2023/10/25 10:18:37;;;;;;;;;;;;;;;18.59;65.96;98752.88;5028726;28;19944;-77
2023/10/25 10:21:06;;;;;;;;;;;;;;;18.62;65.84;98749.22;5027771;28;19925;-75
2023/10/25 10:23:40;;;;;;;;;;;;;;;18.82;65.62;98740.28;5028381;28;19921;-70
2023/10/25 10:26:07;;;;;;;;;;;;;;;18.81;66.21;98728.13;5025391;28;20036;-72
2023/10/25 10:28:43;;;;;;;;;;;;;;;18.95;65.64;98732.94;5030974;28;19919;-75
2023/10/25 10:31:09;;;;;;;;;;;;;;;19.02;65.13;98747.13;5023801;28;19924;-73
2023/10/25 10:33:44;;;;;;;;;;;;;;;19.16;64.45;98743.41;5019720;28;19964;-73
2023/10/25 10:36:10;;;;;;;;;;;;;;;19.21;65.45;98737.34;5025270;28;19921;-74
2023/10/25 10:38:54;;;;;;;;;;;;;;;19.27;64.65;98726.38;5025910;28;19917;-74
2023/10/25 10:41:28;;;;;;;;;;;;;;;19.19;64.51;98728.44;5024097;28;20018;-74
2023/10/25 10:43:55;;;;;;;;;;;;;;;19.27;63.99;98734.06;5025953;28;19921;-78
2023/10/25 10:46:21;;;;;;;;;;;;;;;19.44;63.63;98736.00;5026221;28;20295;-77
2023/10/25 10:48:50;;;;;;;;;;;;;;;19.53;62.96;98731.88;5023708;28;19922;-77
2023/10/25 10:51:16;;;;;;;;;;;;;;;19.46;63.06;98727.88;5028528;28;19967;-74
2023/10/25 10:53:41;;;;;;;;;;;;;;;19.57;63.42;98727.81;5023820;28;19929;-73
2023/10/25 10:56:07;;;;;;;;;;;;;;;19.68;63.40;98722.09;5026965;28;19917;-77
2023/10/25 10:58:32;;;;;;;;;;;;;;;19.66;63.25;98707.50;5027085;28;19918;-77
2023/10/25 11:00:58;;;;;;;;;;;;;;;19.48;63.03;98704.78;5019990;28;19926;-74
2023/10/25 11:03:25;;;;;;;;;;;;;;;19.57;63.32;98701.50;5022159;28;19917;-80
2023/10/25 11:05:51;;;;;;;;;;;;;;;19.71;63.26;98675.84;5024144;28;20055;-79
2023/10/25 11:08:20;;;;;;;;;;;;;;;19.63;62.50;98679.97;5027297;28;19917;-81
2023/10/25 11:10:46;;;;;;;;;;;;;;;19.36;63.21;98674.88;5023960;28;19917;-74
2023/10/25 11:13:11;;;;;;;;;;;;;;;19.53;61.91;98676.00;5027356;28;19924;-77
2023/10/25 11:15:38;;;;;;;;;;;;;;;19.76;61.96;98669.72;5015510;28;19924;-77
2023/10/25 11:18:09;;;;;;;;;;;;;;;19.87;62.27;98666.00;5029629;28;20031;-80
2023/10/25 11:20:34;;;;;;;;;;;;;;;20.04;62.45;98672.78;5028251;28;19960;-79
2023/10/25 11:23:02;;;;;;;;;;;;;;;20.06;61.46;98671.16;5030276;28;20039;-75
2023/10/25 11:25:29;;;;;;;;;;;;;;;20.23;60.83;98660.03;5030526;28;20354;-77
2023/10/25 11:27:55;;;;;;;;;;;;;;;20.20;59.99;98655.19;5025683;28;20383;-74
2023/10/25 11:30:21;;;;;;;;;;;;;;;19.87;60.77;98648.97;5024775;28;20383;-79
2023/10/25 11:32:50;;;;;;;;;;;;;;;19.92;61.58;98628.69;5029802;28;19972;-77
2023/10/25 11:35:41;;;;;;;;;;;;;;;20.31;61.96;98626.69;5031166;28;19953;-77
2023/10/25 11:38:06;;;;;;;;;;;;;;;20.38;61.45;98632.31;5024335;28;20035;-76
2023/10/25 11:40:50;;;;;;;;;;;;;;;20.42;60.80;98627.38;5026548;28;19961;-78
2023/10/25 11:43:16;;;;;;;;;;;;;;;20.60;60.30;98627.16;5030976;28;19917;-74
2023/10/25 11:45:41;;;;;;;;;;;;;;;20.81;59.84;98636.69;5030092;28;19921;-75
2023/10/25 11:48:07;;;;;;;;;;;;;;;20.70;58.71;98624.63;5032655;28;19913;-74
2023/10/25 11:50:32;;;;;;;;;;;;;;;20.72;58.84;98616.47;5031223;28;19917;-75
2023/10/25 11:53:00;;;;;;;;;;;;;;;20.74;58.44;98614.00;5034980;28;19917;-77
2023/10/25 11:55:27;;;;;;;;;;;;;;;20.89;57.88;98614.66;5027651;28;19917;-75
2023/10/25 11:57:52;;;;;;;;;;;;;;;21.04;57.15;98618.91;5029087;28;19925;-75
2023/10/25 12:00:18;;;;;;;;;;;;;;;21.15;56.60;98615.13;5025889;28;19921;-77
2023/10/25 12:02:44;;;;;;;;;;;;;;;21.13;56.67;98615.56;5023186;28;20359;-76
2023/10/25 12:05:09;;;;;;;;;;;;;;;20.75;57.46;98609.94;5021931;28;20020;-77
2023/10/25 12:07:34;;;;;;;;;;;;;;;20.93;57.89;98600.41;5030872;28;19916;-76
2023/10/25 12:10:00;;;;;;;;;;;;;;;21.07;57.26;98597.38;5027126;28;19913;-76
2023/10/25 12:12:25;;;;;;;;;;;;;;;21.36;56.64;98594.13;5022103;28;19976;-76
2023/10/25 12:14:51;;;;;;;;;;;;;;;21.38;56.50;98588.78;5024605;28;19925;-76
2023/10/25 12:17:16;;;;;;;;;;;;;;;21.02;57.19;98590.13;5025202;28;20388;-76
2023/10/25 12:19:42;;;;;;;;;;;;;;;21.35;56.71;98586.00;5026708;28;20027;-76
2023/10/25 12:22:09;;;;;;;;;;;;;;;21.28;55.98;98582.03;5028340;28;19921;-75
2023/10/25 12:24:38;;;;;;;;;;;;;;;21.01;55.94;98587.72;5031987;28;20007;-76
2023/10/25 12:27:04;;;;;;;;;;;;;;;21.08;55.82;98593.28;5033608;28;19917;-74
2023/10/25 12:29:29;;;;;;;;;;;;;;;21.06;56.07;98575.88;5029578;28;20552;-74
2023/10/25 12:31:55;;;;;;;;;;;;;;;21.01;56.32;98576.34;5029492;28;20047;-74
2023/10/25 12:34:20;;;;;;;;;;;;;;;21.06;56.11;98573.03;5031622;28;20015;-74
2023/10/25 12:36:45;;;;;;;;;;;;;;;21.34;55.54;98565.28;5014227;28;19920;-74
2023/10/25 12:39:11;;;;;;;;;;;;;;;21.49;55.10;98571.53;5029266;28;19935;-74
2023/10/25 12:41:36;;;;;;;;;;;;;;;21.08;55.65;98570.53;5031925;28;19917;-74
2023/10/25 12:44:04;;;;;;;;;;;;;;;21.24;55.40;98566.28;5030531;28;19943;-74